Time;durP1;ratioP1;P1;durP2;ratioP2;P2;SDS_P1;SDS_P2;PMS_P1;PMS_P2;Temp;Humidity;BMP_temperature;BMP_pressure;BME280_temperature;BME280_humidity;BME280_pressure;Samples;Min_cycle;Max_cycle;Signal;HPM_P1;HPM_P2
2023/08/04 00:00:04;;;;;;;;;;;;;;;20.07;51.65;99808.81;105277;1299;66713;-90
2023/08/04 00:03:32;;;;;;;;;;;;;;;20.04;51.73;99811.44;105481;1298;71482;-89
2023/08/04 00:06:58;;;;;;;;;;;;;;;20.03;51.90;99815.72;105479;1299;59105;-89
2023/08/04 00:10:27;;;;;;;;;;;;;;;20.03;51.97;99814.86;105517;1300;59164;-89
2023/08/04 00:13:23;;;;;;;;;;;;;;;20.03;52.02;99812.73;105462;1301;74192;-88
2023/08/04 00:16:50;;;;;;;;;;;;;;;20.00;52.05;99812.59;104881;1308;67245;-89
2023/08/04 01:06:59;;;;;;;;;;;;;;;19.97;52.85;99847.09;96776;1299;74148;-90
2023/08/04 01:48:54;;;;;;;;;;;;;;;19.59;53.45;99877.66;105528;1301;66372;-90
2023/08/04 03:44:35;;;;;;;;;;;;;;;18.21;55.42;99991.76;104096;1299;59371;-90
2023/08/04 04:32:01;;;;;;;;;;;;;;;18.34;56.45;99985.58;104724;1301;73432;-90
2023/08/04 06:41:19;;;;;;;;;;;;;;;25.51;55.16;100097.52;98092;1301;72363;-90
2023/08/04 08:04:54;;;;;;;;;;;;;;;28.60;51.96;100194.64;96827;1299;59161;-90
2023/08/04 08:16:03;;;;;;;;;;;;;;;26.51;52.54;100206.97;105465;1299;72283;-91
2023/08/04 08:18:49;;;;;;;;;;;;;;;26.00;52.58;100214.55;105315;1302;59001;-85
2023/08/04 08:21:36;;;;;;;;;;;;;;;25.50;52.60;100216.73;105393;1302;59017;-85
2023/08/04 08:24:22;;;;;;;;;;;;;;;25.14;52.65;100221.69;105205;1301;73739;-85
2023/08/04 08:27:10;;;;;;;;;;;;;;;24.91;52.68;100223.24;105273;1300;67266;-86
2023/08/04 08:30:32;;;;;;;;;;;;;;;24.85;52.71;100233.45;105199;1302;71393;-86
2023/08/04 08:33:46;;;;;;;;;;;;;;;24.66;52.52;100229.69;105379;1302;59258;-87
2023/08/04 08:36:51;;;;;;;;;;;;;;;24.39;52.56;100228.21;105348;1301;59371;-85
2023/08/04 08:39:37;;;;;;;;;;;;;;;24.30;52.66;100224.63;105297;1301;73468;-86
2023/08/04 08:42:23;;;;;;;;;;;;;;;25.14;52.93;100223.21;105180;1302;69386;-86
2023/08/04 08:45:30;;;;;;;;;;;;;;;26.10;52.95;100224.92;105291;1299;72894;-86
2023/08/04 08:48:35;;;;;;;;;;;;;;;29.41;52.28;100232.16;105191;1299;59579;-88
2023/08/04 08:51:44;;;;;;;;;;;;;;;31.67;50.70;100232.08;105364;1299;59230;-87
2023/08/04 08:54:50;;;;;;;;;;;;;;;31.27;50.53;100233.70;105341;1300;73229;-87
2023/08/04 08:57:56;;;;;;;;;;;;;;;29.89;51.18;100240.86;105340;1299;68133;-87
2023/08/04 09:00:47;;;;;;;;;;;;;;;29.29;51.58;100243.47;105171;1300;73173;-87
2023/08/04 09:03:53;;;;;;;;;;;;;;;28.77;51.59;100243.29;105104;1299;59101;-87
2023/08/04 09:07:03;;;;;;;;;;;;;;;28.28;51.49;100238.51;105224;1302;58952;-87
2023/08/04 09:10:10;;;;;;;;;;;;;;;27.77;51.14;100244.09;104988;1302;73334;-86
2023/08/04 09:13:04;;;;;;;;;;;;;;;27.45;51.34;100252.95;104996;1304;68901;-86
2023/08/04 09:16:12;;;;;;;;;;;;;;;27.26;51.20;100254.50;104927;1306;70423;-87
2023/08/04 09:19:19;;;;;;;;;;;;;;;27.08;51.21;100255.88;104986;1304;59123;-87
2023/08/04 09:22:45;;;;;;;;;;;;;;;26.85;51.16;100252.23;105042;1305;58988;-86
2023/08/04 09:26:11;;;;;;;;;;;;;;;26.81;50.88;100259.34;104977;1305;74178;-86
2023/08/04 09:29:21;;;;;;;;;;;;;;;26.64;50.83;100256.41;105005;1305;67549;-86
2023/08/04 09:32:47;;;;;;;;;;;;;;;26.42;50.53;100259.64;104842;1304;71288;-87
2023/08/04 09:36:21;;;;;;;;;;;;;;;26.20;50.49;100263.67;104955;1304;59233;-86
2023/08/04 09:39:29;;;;;;;;;;;;;;;26.01;50.38;100270.20;101378;1305;5003167;-88
2023/08/04 09:42:35;;;;;;;;;;;;;;;25.80;50.23;100276.13;105204;1302;67522;-86
2023/08/04 09:45:23;;;;;;;;;;;;;;;25.65;50.18;100278.12;105194;1301;74758;-86
2023/08/04 09:48:33;;;;;;;;;;;;;;;25.57;50.22;100269.76;105175;1301;59369;-86
2023/08/04 09:51:27;;;;;;;;;;;;;;;25.60;50.20;100271.80;105232;1307;59881;-86
2023/08/04 09:54:13;;;;;;;;;;;;;;;25.62;50.20;100282.53;105202;1301;73824;-85
2023/08/04 09:57:19;;;;;;;;;;;;;;;25.64;50.07;100282.08;105158;1302;68040;-86
2023/08/04 10:00:26;;;;;;;;;;;;;;;25.57;49.96;100282.67;105274;1301;72385;-86
2023/08/04 10:03:33;;;;;;;;;;;;;;;25.44;49.96;100288.40;105302;1300;59008;-86
2023/08/04 10:06:36;;;;;;;;;;;;;;;25.25;49.89;100292.21;105159;1299;59238;-86
2023/08/04 10:09:46;;;;;;;;;;;;;;;25.10;50.00;100292.79;105304;1302;73413;-86
2023/08/04 10:12:41;;;;;;;;;;;;;;;25.04;50.03;100292.17;105315;1302;67478;-86
2023/08/04 10:15:29;;;;;;;;;;;;;;;25.00;50.05;100298.30;105267;1302;73807;-86
2023/08/04 10:18:31;;;;;;;;;;;;;;;24.93;50.00;100308.63;105328;1300;59432;-86
2023/08/04 10:21:56;;;;;;;;;;;;;;;24.82;50.01;100320.27;105238;1302;59946;-86
2023/08/04 10:25:19;;;;;;;;;;;;;;;24.65;50.00;100332.69;105370;1302;73346;-86
2023/08/04 10:28:32;;;;;;;;;;;;;;;24.49;50.19;100342.11;105274;1301;67351;-86
2023/08/04 10:31:39;;;;;;;;;;;;;;;24.38;50.15;100335.22;105165;1302;71983;-86
2023/08/04 10:34:38;;;;;;;;;;;;;;;24.30;50.20;100328.77;105316;1299;58991;-85
2023/08/04 10:37:24;;;;;;;;;;;;;;;24.24;50.27;100323.05;105275;1302;58927;-85
2023/08/04 10:40:11;;;;;;;;;;;;;;;24.26;50.32;100321.39;105312;1301;74879;-85
2023/08/04 10:43:08;;;;;;;;;;;;;;;24.26;50.23;100325.57;105322;1300;67409;-85
2023/08/04 10:46:15;;;;;;;;;;;;;;;24.34;50.33;100324.58;105233;1302;71407;-86
2023/08/04 10:49:17;;;;;;;;;;;;;;;24.48;50.36;100325.83;105278;1301;59029;-86
2023/08/04 10:52:43;;;;;;;;;;;;;;;24.55;50.22;100327.55;105337;1299;59801;-86
2023/08/04 10:56:14;;;;;;;;;;;;;;;24.57;50.27;100327.02;105345;1301;74785;-86
2023/08/04 10:59:20;;;;;;;;;;;;;;;24.63;50.41;100325.28;105286;1301;67472;-86
2023/08/04 11:02:06;;;;;;;;;;;;;;;24.69;50.45;100325.02;105229;1302;71428;-86
2023/08/04 11:05:09;;;;;;;;;;;;;;;24.71;50.36;100322.73;105131;1302;59034;-86
2023/08/04 11:07:55;;;;;;;;;;;;;;;24.69;50.30;100321.99;105149;1301;59314;-86
2023/08/04 11:11:04;;;;;;;;;;;;;;;24.63;50.20;100325.60;105202;1302;74571;-86
2023/08/04 11:14:10;;;;;;;;;;;;;;;24.62;50.38;100326.80;105238;1300;67281;-85
2023/08/04 11:17:00;;;;;;;;;;;;;;;24.60;50.29;100328.15;105235;1301;71258;-85
2023/08/04 11:19:48;;;;;;;;;;;;;;;24.64;50.42;100328.75;105243;1301;58973;-85
2023/08/04 11:22:35;;;;;;;;;;;;;;;24.69;50.37;100325.84;105194;1301;58956;-86
2023/08/04 11:25:41;;;;;;;;;;;;;;;24.70;50.31;100328.98;105260;1302;73293;-86
2023/08/04 11:28:35;;;;;;;;;;;;;;;24.70;50.32;100337.59;105265;1301;68267;-86
2023/08/04 11:31:42;;;;;;;;;;;;;;;24.68;50.28;100345.48;105278;1301;71349;-85
2023/08/04 11:34:48;;;;;;;;;;;;;;;24.63;50.34;100345.33;105261;1302;59389;-86
2023/08/04 11:37:34;;;;;;;;;;;;;;;24.70;50.49;100341.09;105044;1302;58948;-86
2023/08/04 11:40:27;;;;;;;;;;;;;;;24.74;50.29;100334.46;105206;1302;74388;-86
2023/08/04 11:43:14;;;;;;;;;;;;;;;24.75;50.24;100339.13;105305;1301;68555;-86
2023/08/04 11:46:19;;;;;;;;;;;;;;;24.87;50.34;100348.11;105226;1299;72503;-88
2023/08/04 11:49:11;;;;;;;;;;;;;;;24.99;50.39;100352.55;105240;1301;59665;-86
2023/08/04 11:51:58;;;;;;;;;;;;;;;25.07;50.21;100348.70;105242;1301;60050;-85
2023/08/04 11:54:51;;;;;;;;;;;;;;;25.08;50.11;100357.09;105193;1300;73432;-86
2023/08/04 11:58:05;;;;;;;;;;;;;;;25.01;49.98;100361.41;105250;1302;67530;-85
2023/08/04 12:00:51;;;;;;;;;;;;;;;24.90;50.04;100361.55;105173;1302;73143;-85
2023/08/04 12:03:40;;;;;;;;;;;;;;;24.86;50.07;100364.34;105264;1301;59430;-86
2023/08/04 12:06:30;;;;;;;;;;;;;;;24.87;50.08;100368.90;105299;1302;59369;-86
2023/08/04 12:09:28;;;;;;;;;;;;;;;24.84;50.11;100367.34;105333;1299;73533;-86
2023/08/04 12:12:35;;;;;;;;;;;;;;;24.84;50.15;100364.17;105275;1302;67378;-85
2023/08/04 12:15:21;;;;;;;;;;;;;;;24.89;50.19;100355.85;105355;1299;71940;-86
2023/08/04 12:18:21;;;;;;;;;;;;;;;24.89;50.01;100358.08;105291;1299;59452;-86
2023/08/04 12:21:28;;;;;;;;;;;;;;;24.91;49.92;100360.25;105203;1302;58577;-86
2023/08/04 12:24:34;;;;;;;;;;;;;;;24.93;49.86;100363.95;105327;1299;73352;-86
2023/08/04 12:27:22;;;;;;;;;;;;;;;24.96;49.94;100366.52;105256;1299;67982;-86
2023/08/04 12:30:09;;;;;;;;;;;;;;;24.98;49.83;100376.95;105218;1302;72478;-85
2023/08/04 12:32:55;;;;;;;;;;;;;;;25.03;49.92;100378.17;105157;1302;59473;-85
2023/08/04 12:35:41;;;;;;;;;;;;;;;25.06;49.80;100374.54;105342;1300;58895;-85
2023/08/04 12:38:29;;;;;;;;;;;;;;;25.06;49.75;100374.37;105273;1299;73541;-86
2023/08/04 12:41:27;;;;;;;;;;;;;;;25.07;49.83;100371.98;105178;1302;68750;-86
2023/08/04 12:44:41;;;;;;;;;;;;;;;25.13;49.82;100375.46;105252;1299;72314;-86
2023/08/04 12:47:47;;;;;;;;;;;;;;;25.22;49.72;100374.84;105374;1301;59558;-86
2023/08/04 12:50:53;;;;;;;;;;;;;;;25.25;49.67;100372.33;105383;1299;58939;-85
2023/08/04 12:54:03;;;;;;;;;;;;;;;25.24;49.58;100374.16;105348;1302;73570;-86
2023/08/04 12:56:53;;;;;;;;;;;;;;;25.17;49.43;100377.91;105310;1301;69115;-85
2023/08/04 12:59:40;;;;;;;;;;;;;;;25.10;49.38;100368.98;105316;1299;71067;-85
2023/08/04 13:02:27;;;;;;;;;;;;;;;24.99;49.22;100363.29;105190;1301;59025;-85
2023/08/04 13:05:14;;;;;;;;;;;;;;;24.92;49.32;100361.76;105325;1301;59806;-85
2023/08/04 13:08:00;;;;;;;;;;;;;;;24.88;49.23;100367.92;105161;1302;73268;-85
2023/08/04 13:10:46;;;;;;;;;;;;;;;24.87;49.28;100374.17;105173;1302;67506;-85
2023/08/04 13:13:54;;;;;;;;;;;;;;;24.87;49.18;100377.20;105201;1302;72587;-86
2023/08/04 13:16:41;;;;;;;;;;;;;;;24.85;49.09;100375.88;105165;1299;59062;-86
2023/08/04 13:19:27;;;;;;;;;;;;;;;24.82;48.84;100380.04;105181;1301;58975;-85
2023/08/04 13:22:13;;;;;;;;;;;;;;;24.87;48.99;100377.16;105277;1300;73317;-86
2023/08/04 13:25:00;;;;;;;;;;;;;;;24.94;48.90;100380.86;105089;1301;67530;-85
2023/08/04 13:27:46;;;;;;;;;;;;;;;24.97;48.91;100382.70;105248;1299;71417;-86
2023/08/04 13:30:52;;;;;;;;;;;;;;;24.99;48.82;100386.95;105115;1301;59510;-85
2023/08/04 13:33:40;;;;;;;;;;;;;;;24.98;48.87;100398.09;105329;1299;59961;-85
2023/08/04 13:36:27;;;;;;;;;;;;;;;24.99;48.96;100397.48;105101;1301;74834;-85
2023/08/04 13:39:13;;;;;;;;;;;;;;;25.04;49.02;100398.35;105194;1300;67049;-85
2023/08/04 13:41:59;;;;;;;;;;;;;;;25.15;48.86;100400.83;105245;1302;72658;-85
2023/08/04 13:44:45;;;;;;;;;;;;;;;25.23;48.77;100404.98;105198;1302;59134;-85
2023/08/04 13:47:52;;;;;;;;;;;;;;;25.24;48.50;100406.11;105154;1301;59840;-85
2023/08/04 13:50:39;;;;;;;;;;;;;;;25.21;48.43;100403.57;105111;1302;73418;-86
2023/08/04 13:53:45;;;;;;;;;;;;;;;25.20;48.41;100405.91;105164;1302;68078;-86
2023/08/04 13:56:33;;;;;;;;;;;;;;;25.19;48.33;100413.22;105114;1305;72431;-85
2023/08/04 13:59:19;;;;;;;;;;;;;;;25.14;48.30;100412.20;105267;1301;59300;-85
2023/08/04 14:02:05;;;;;;;;;;;;;;;25.11;48.22;100408.77;105118;1302;59048;-85
2023/08/04 14:04:52;;;;;;;;;;;;;;;25.08;48.27;100412.16;105138;1299;73414;-85
2023/08/04 14:07:41;;;;;;;;;;;;;;;25.08;48.26;100412.10;105148;1302;67362;-85
2023/08/04 14:10:35;;;;;;;;;;;;;;;25.10;48.10;100413.42;105119;1302;71500;-86
2023/08/04 14:13:29;;;;;;;;;;;;;;;25.08;47.95;100420.95;105215;1301;59323;-85
2023/08/04 14:16:15;;;;;;;;;;;;;;;25.09;47.94;100425.64;105156;1301;60606;-85
2023/08/04 14:19:21;;;;;;;;;;;;;;;25.12;47.87;100426.67;105340;1299;74656;-85
2023/08/04 14:22:08;;;;;;;;;;;;;;;25.12;47.83;100429.52;105290;1300;67364;-85
2023/08/04 14:24:55;;;;;;;;;;;;;;;25.08;47.74;100442.98;105246;1301;71201;-86
2023/08/04 14:27:49;;;;;;;;;;;;;;;25.11;47.78;100441.80;104971;1302;59036;-86
2023/08/04 14:30:51;;;;;;;;;;;;;;;25.20;47.79;100444.52;105185;1302;59755;-86
2023/08/04 14:33:37;;;;;;;;;;;;;;;25.27;47.74;100444.33;105146;1302;73195;-86
2023/08/04 14:36:23;;;;;;;;;;;;;;;25.32;47.65;100445.38;105218;1300;67564;-85
2023/08/04 14:39:11;;;;;;;;;;;;;;;25.37;47.78;100445.48;105266;1301;72426;-86
2023/08/04 14:41:57;;;;;;;;;;;;;;;25.41;47.66;100437.73;105242;1302;59089;-86
2023/08/04 14:44:48;;;;;;;;;;;;;;;25.39;47.62;100440.38;105338;1301;59372;-86
2023/08/04 14:47:34;;;;;;;;;;;;;;;25.31;47.61;100442.75;105194;1302;73494;-85
2023/08/04 14:50:20;;;;;;;;;;;;;;;25.26;47.62;100442.61;105164;1302;67368;-84
2023/08/04 14:53:07;;;;;;;;;;;;;;;25.24;47.60;100448.80;105193;1302;71510;-84
2023/08/04 14:55:53;;;;;;;;;;;;;;;25.25;47.58;100458.45;105255;1302;59337;-85
2023/08/04 14:58:39;;;;;;;;;;;;;;;25.26;47.58;100458.33;105270;1302;59079;-85
2023/08/04 15:01:25;;;;;;;;;;;;;;;25.29;47.47;100460.08;105162;1301;74634;-86
2023/08/04 15:04:13;;;;;;;;;;;;;;;25.30;47.30;100457.89;105234;1302;68419;-85
2023/08/04 15:07:00;;;;;;;;;;;;;;;25.28;47.28;100451.52;105288;1301;70447;-85
2023/08/04 15:09:48;;;;;;;;;;;;;;;25.29;47.36;100449.67;105259;1302;59330;-85
2023/08/04 15:12:34;;;;;;;;;;;;;;;25.34;47.45;100447.10;105105;1301;59865;-85
2023/08/04 15:15:20;;;;;;;;;;;;;;;25.35;47.30;100451.77;105355;1301;73597;-85
2023/08/04 15:18:08;;;;;;;;;;;;;;;25.31;47.17;100462.15;105338;1301;67346;-85
2023/08/04 15:20:58;;;;;;;;;;;;;;;25.26;47.06;100454.09;105305;1299;70283;-86
2023/08/04 15:23:50;;;;;;;;;;;;;;;25.24;47.18;100455.20;105338;1301;59071;-85
2023/08/04 15:26:37;;;;;;;;;;;;;;;25.20;47.17;100465.02;105322;1301;59307;-85
2023/08/04 15:29:25;;;;;;;;;;;;;;;25.17;47.24;100458.77;105336;1300;73827;-85
2023/08/04 15:32:11;;;;;;;;;;;;;;;25.16;47.32;100454.97;105267;1300;67548;-85
2023/08/04 15:34:58;;;;;;;;;;;;;;;25.18;47.37;100454.63;105186;1302;70429;-86
2023/08/04 15:37:52;;;;;;;;;;;;;;;25.18;47.32;100452.96;105385;1299;59202;-85
2023/08/04 15:40:40;;;;;;;;;;;;;;;25.15;47.35;100456.94;105304;1301;59269;-86
2023/08/04 15:43:27;;;;;;;;;;;;;;;25.14;47.38;100452.64;105375;1301;73532;-85
2023/08/04 15:46:13;;;;;;;;;;;;;;;25.18;47.38;100457.77;105272;1302;67600;-85
2023/08/04 15:49:00;;;;;;;;;;;;;;;25.22;47.46;100463.07;105314;1301;71666;-85
2023/08/04 15:51:46;;;;;;;;;;;;;;;25.25;47.44;100462.88;105378;1300;58915;-85
2023/08/04 15:54:33;;;;;;;;;;;;;;;25.26;47.42;100462.92;105253;1301;59686;-85
2023/08/04 15:57:20;;;;;;;;;;;;;;;25.24;47.40;100457.10;105308;1305;74658;-85
2023/08/04 16:00:07;;;;;;;;;;;;;;;25.26;47.45;100459.77;105348;1299;69315;-85
2023/08/04 16:02:53;;;;;;;;;;;;;;;25.26;47.35;100461.31;105348;1299;72587;-85
2023/08/04 16:05:40;;;;;;;;;;;;;;;25.26;47.42;100465.71;105406;1299;59472;-85
2023/08/04 16:08:27;;;;;;;;;;;;;;;25.28;47.54;100467.73;105295;1299;58884;-85
2023/08/04 16:11:13;;;;;;;;;;;;;;;25.28;47.44;100465.76;105291;1301;73978;-84
2023/08/04 16:14:00;;;;;;;;;;;;;;;25.25;47.47;100468.51;105313;1299;67471;-84
2023/08/04 16:16:46;;;;;;;;;;;;;;;25.23;47.47;100473.92;105392;1299;71440;-85
2023/08/04 16:19:34;;;;;;;;;;;;;;;25.22;47.50;100472.77;105421;1299;59433;-85
2023/08/04 16:22:20;;;;;;;;;;;;;;;25.21;47.49;100468.48;105456;1300;58923;-85
2023/08/04 16:25:07;;;;;;;;;;;;;;;25.18;47.64;100465.20;105298;1301;73218;-85
2023/08/04 16:27:53;;;;;;;;;;;;;;;25.15;47.60;100457.86;105209;1302;67531;-85
2023/08/04 16:30:40;;;;;;;;;;;;;;;25.11;47.68;100459.09;105071;1302;72682;-85
2023/08/04 16:33:27;;;;;;;;;;;;;;;25.07;47.72;100459.33;105231;1302;59293;-85
2023/08/04 16:36:13;;;;;;;;;;;;;;;25.03;47.79;100461.20;105196;1302;62173;-85
2023/08/04 17:09:24;;;;;;;;;;;;;;;24.72;48.30;100476.57;83637;1324;65868;-93
2023/08/04 17:54:46;;;;;;;;;;;;;;;24.08;49.63;100501.80;103745;1299;59162;-90
2023/08/04 18:41:48;;;;;;;;;;;;;;;23.14;51.03;100537.31;105288;1299;79465;-88
2023/08/04 18:45:14;;;;;;;;;;;;;;;23.03;51.28;100541.25;105434;1299;71400;-89
2023/08/04 18:48:40;;;;;;;;;;;;;;;22.94;51.33;100548.91;105339;1302;59291;-88
2023/08/04 18:51:38;;;;;;;;;;;;;;;22.84;51.55;100554.38;105425;1299;59040;-89
2023/08/04 18:57:06;;;;;;;;;;;;;;;22.69;51.66;100565.18;105587;1302;77585;-92
2023/08/04 19:00:12;;;;;;;;;;;;;;;22.60;51.80;100565.11;105249;1301;71460;-84
2023/08/04 19:03:19;;;;;;;;;;;;;;;22.54;51.81;100566.70;105304;1300;59111;-89
2023/08/04 19:06:45;;;;;;;;;;;;;;;22.48;51.89;100570.30;101308;1301;5468037;-89
2023/08/04 19:10:14;;;;;;;;;;;;;;;22.38;52.00;100584.80;105352;1302;73542;-88
2023/08/04 19:13:19;;;;;;;;;;;;;;;22.26;52.20;100594.95;105394;1299;67218;-84
2023/08/04 19:16:05;;;;;;;;;;;;;;;22.20;52.32;100607.30;105312;1300;71514;-83
2023/08/04 19:18:52;;;;;;;;;;;;;;;22.14;52.30;100613.11;105186;1302;59039;-83
2023/08/04 19:21:38;;;;;;;;;;;;;;;22.07;52.50;100609.49;105206;1302;59371;-83
2023/08/04 19:24:24;;;;;;;;;;;;;;;21.99;52.52;100618.25;105364;1302;73376;-84
2023/08/04 19:27:12;;;;;;;;;;;;;;;21.89;52.69;100627.49;105363;1301;68645;-84
2023/08/04 19:29:58;;;;;;;;;;;;;;;21.84;52.78;100627.33;105286;1301;71260;-83
2023/08/04 19:32:44;;;;;;;;;;;;;;;21.78;52.86;100632.23;105227;1301;59088;-83
2023/08/04 19:35:30;;;;;;;;;;;;;;;21.72;52.91;100635.77;105170;1302;59863;-83
2023/08/04 19:38:16;;;;;;;;;;;;;;;21.67;53.10;100635.89;105190;1301;74442;-83
2023/08/04 19:41:03;;;;;;;;;;;;;;;21.63;53.18;100640.52;105135;1302;68548;-83
2023/08/04 19:43:49;;;;;;;;;;;;;;;21.59;53.21;100643.08;105232;1302;72178;-83
2023/08/04 19:46:35;;;;;;;;;;;;;;;21.53;53.38;100641.31;105017;1302;59616;-83
2023/08/04 19:49:21;;;;;;;;;;;;;;;21.44;53.61;100638.20;105121;1302;59382;-83
2023/08/04 19:52:07;;;;;;;;;;;;;;;21.34;53.62;100639.86;105321;1301;74382;-83
2023/08/04 19:54:53;;;;;;;;;;;;;;;21.30;53.70;100636.79;105059;1302;68487;-84
2023/08/04 19:57:41;;;;;;;;;;;;;;;21.27;53.75;100640.50;105197;1302;72482;-84
2023/08/04 20:00:28;;;;;;;;;;;;;;;21.21;53.81;100637.31;105147;1304;58968;-83
2023/08/04 20:03:14;;;;;;;;;;;;;;;21.16;53.96;100633.02;105279;1301;59437;-84
2023/08/04 20:06:00;;;;;;;;;;;;;;;21.10;54.02;100632.88;105231;1302;74094;-84
2023/08/04 20:08:46;;;;;;;;;;;;;;;21.04;54.08;100635.14;105278;1301;66807;-84
2023/08/04 20:11:33;;;;;;;;;;;;;;;20.97;54.19;100629.09;105121;1302;71537;-83
2023/08/04 20:14:19;;;;;;;;;;;;;;;20.86;54.24;100631.31;105235;1302;59080;-84
2023/08/04 20:17:05;;;;;;;;;;;;;;;20.77;54.60;100628.36;105219;1302;58856;-84
2023/08/04 20:19:51;;;;;;;;;;;;;;;20.75;54.56;100630.22;105277;1302;74660;-84
2023/08/04 20:22:38;;;;;;;;;;;;;;;20.72;54.62;100627.56;105237;1305;67242;-84
2023/08/04 20:25:24;;;;;;;;;;;;;;;20.70;54.77;100628.77;105235;1302;71393;-83
2023/08/04 20:28:10;;;;;;;;;;;;;;;20.65;54.82;100637.45;105197;1302;59480;-83
2023/08/04 20:31:04;;;;;;;;;;;;;;;20.61;54.86;100645.21;105237;1302;58981;-83
2023/08/04 20:33:54;;;;;;;;;;;;;;;20.59;54.86;100648.68;105306;1301;73316;-84
2023/08/04 20:36:40;;;;;;;;;;;;;;;20.49;54.88;100648.01;105258;1302;67343;-84
2023/08/04 20:39:27;;;;;;;;;;;;;;;20.44;55.10;100649.36;105253;1302;71268;-84
2023/08/04 20:42:13;;;;;;;;;;;;;;;20.41;55.29;100650.03;105199;1301;59085;-83
2023/08/04 20:44:59;;;;;;;;;;;;;;;20.37;55.28;100654.26;105216;1300;59309;-84
2023/08/04 20:48:07;;;;;;;;;;;;;;;20.33;55.35;100662.34;105283;1302;73374;-89
2023/08/04 20:51:31;;;;;;;;;;;;;;;20.18;55.51;100678.96;105370;1302;68174;-87
2023/08/04 20:54:57;;;;;;;;;;;;;;;20.02;55.70;100676.52;105291;1301;71432;-88
2023/08/04 21:00:59;;;;;;;;;;;;;;;19.91;55.79;100675.75;105546;1298;59512;-89
2023/08/04 21:04:25;;;;;;;;;;;;;;;19.88;55.81;100676.21;105526;1299;74509;-88
2023/08/04 21:07:51;;;;;;;;;;;;;;;19.81;56.03;100670.30;105515;1299;67524;-89
2023/08/04 21:11:18;;;;;;;;;;;;;;;19.77;56.26;100669.67;105511;1299;73861;-89
2023/08/04 21:14:44;;;;;;;;;;;;;;;19.72;56.38;100666.11;105471;1301;60773;-88
2023/08/04 21:18:14;;;;;;;;;;;;;;;19.70;56.49;100660.42;105465;1299;58939;-88
2023/08/04 21:21:36;;;;;;;;;;;;;;;19.68;56.42;100664.38;105491;1301;75312;-88
2023/08/04 21:25:06;;;;;;;;;;;;;;;19.64;56.47;100664.58;105501;1299;68500;-89
2023/08/04 21:28:34;;;;;;;;;;;;;;;19.58;56.78;100664.57;104853;1307;71238;-88
2023/08/04 21:32:00;;;;;;;;;;;;;;;19.46;56.85;100660.44;104752;1307;59733;-88
2023/08/04 21:35:26;;;;;;;;;;;;;;;19.37;56.89;100672.97;104916;1308;62135;-89
2023/08/04 21:38:53;;;;;;;;;;;;;;;19.35;56.98;100673.59;104966;1308;74555;-89
2023/08/04 21:42:19;;;;;;;;;;;;;;;19.32;57.00;100670.59;104917;1306;67369;-89
2023/08/04 21:45:45;;;;;;;;;;;;;;;19.29;57.13;100668.66;104905;1306;71356;-89
2023/08/04 21:49:16;;;;;;;;;;;;;;;19.26;57.15;100671.44;104904;1307;58978;-89
2023/08/04 21:52:37;;;;;;;;;;;;;;;19.19;57.22;100674.60;104943;1307;59032;-88
2023/08/04 21:56:03;;;;;;;;;;;;;;;19.15;57.24;100675.69;104848;1307;72381;-88
2023/08/04 21:59:30;;;;;;;;;;;;;;;19.10;57.22;100679.27;104682;1308;67363;-88
2023/08/04 22:02:56;;;;;;;;;;;;;;;19.02;57.34;100679.83;104597;1308;72705;-89
2023/08/04 22:06:22;;;;;;;;;;;;;;;18.94;57.49;100677.42;105356;1302;59435;-89
2023/08/04 22:09:48;;;;;;;;;;;;;;;18.90;57.44;100680.80;105472;1301;58917;-88
2023/08/04 22:13:14;;;;;;;;;;;;;;;18.83;57.63;100679.02;105410;1302;74491;-88
2023/08/04 22:16:40;;;;;;;;;;;;;;;18.69;57.73;100675.56;105460;1301;68458;-87
2023/08/04 22:20:06;;;;;;;;;;;;;;;18.58;57.94;100680.60;105476;1301;71403;-89
2023/08/04 22:23:32;;;;;;;;;;;;;;;18.53;57.90;100674.53;105127;1305;59402;-89
2023/08/04 22:27:00;;;;;;;;;;;;;;;18.53;58.04;100673.52;105314;1304;58958;-89
2023/08/04 22:30:25;;;;;;;;;;;;;;;18.52;58.03;100670.73;105304;1304;73415;-89
2023/08/04 22:33:51;;;;;;;;;;;;;;;18.50;58.17;100663.16;105271;1303;67213;-88
2023/08/04 22:37:17;;;;;;;;;;;;;;;18.46;58.19;100661.77;105302;1305;72381;-88
2023/08/04 22:40:43;;;;;;;;;;;;;;;18.44;58.28;100665.71;105223;1304;59145;-88
2023/08/04 22:44:10;;;;;;;;;;;;;;;18.38;58.25;100669.86;105312;1304;59852;-88
2023/08/04 22:47:42;;;;;;;;;;;;;;;18.32;58.32;100673.63;105270;1302;72641;-88
2023/08/04 22:51:08;;;;;;;;;;;;;;;18.28;58.41;100679.22;104389;1311;67398;-88
2023/08/04 23:00:48;;;;;;;;;;;;;;;18.17;58.50;100682.20;96612;1302;59627;-88
2023/08/04 23:04:14;;;;;;;;;;;;;;;18.12;58.63;100681.91;105520;1302;73438;-88
2023/08/04 23:07:46;;;;;;;;;;;;;;;18.09;58.67;100670.02;105486;1301;67458;-88
2023/08/04 23:11:15;;;;;;;;;;;;;;;17.97;58.71;100669.89;105477;1301;71484;-88
2023/08/04 23:14:41;;;;;;;;;;;;;;;17.85;58.88;100669.55;105496;1299;59289;-88
2023/08/04 23:18:07;;;;;;;;;;;;;;;17.83;58.91;100668.59;105496;1301;59677;-88
2023/08/04 23:21:00;;;;;;;;;;;;;;;17.82;59.02;100663.58;105474;1302;73346;-88
2023/08/04 23:24:27;;;;;;;;;;;;;;;17.79;58.92;100661.61;105485;1301;68466;-88
2023/08/04 23:27:53;;;;;;;;;;;;;;;17.76;59.04;100659.33;105472;1299;71205;-89
2023/08/04 23:31:22;;;;;;;;;;;;;;;17.74;59.12;100662.36;105482;1301;59080;-88
2023/08/04 23:34:50;;;;;;;;;;;;;;;17.68;59.21;100656.37;104953;1306;59923;-89
2023/08/04 23:38:15;;;;;;;;;;;;;;;17.66;59.12;100660.67;105011;1308;73404;-88
2023/08/04 23:41:41;;;;;;;;;;;;;;;17.63;59.16;100658.14;104988;1308;68615;-89
2023/08/04 23:45:09;;;;;;;;;;;;;;;17.60;59.29;100650.43;104890;1305;72465;-89
2023/08/04 23:48:37;;;;;;;;;;;;;;;17.58;59.38;100653.66;104216;1313;58944;-89
2023/08/04 23:52:07;;;;;;;;;;;;;;;17.56;59.38;100651.34;104251;1313;58917;-89
2023/08/04 23:55:07;;;;;;;;;;;;;;;17.52;59.48;100648.70;105482;1301;74514;-89
